EST,Max TemperatureF,Mean TemperatureF,Min TemperatureF,Max Dew PointF,MeanDew PointF,Min DewpointF,Max Humidity, Mean Humidity, Min Humidity, Max Sea Level PressureIn, Mean Sea Level PressureIn, Min Sea Level PressureIn, Max VisibilityMiles, Mean VisibilityMiles, Min VisibilityMiles, Max Wind SpeedMPH, Mean Wind SpeedMPH, Max Gust SpeedMPH,PrecipitationIn, CloudCover, Events, WindDirDegrees
2013-12-1,39,36,32,32,31,29,98,81,68,30.06,30.02,30.00,10,7,3,9,5,,0.00,7,Snow,304
2013-12-2,39,34,28,32,27,23,99,78,52,29.99,29.91,29.86,10,9,4,8,3,,0.00,3,,102
2013-12-3,33,30,28,34,30,23,100,92,76,29.88,29.83,29.79,10,5,1,12,8,16,0.22,8,Snow,82
2013-12-4,57,45,33,54,43,34,100,98,87,29.83,29.72,29.54,10,2,0,18,7,22,0.00,8,Fog-Rain-Snow,109
2013-12-5,55,41,27,51,29,18,85,72,60,30.13,29.85,29.55,10,10,7,30,18,39,0.00,6,,266
2013-12-6,27,22,18,18,13,9,73,67,59,30.38,30.26,30.13,10,10,7,14,9,18,0.00,5,Snow,302
2013-12-7,21,15,9,13,8,6,87,66,51,30.58,30.52,30.39,10,10,4,16,8,21,0.00,4,Snow,296
2013-12-8,21,15,9,21,12,6,96,82,63,30.55,30.32,29.95,10,7,1,13,5,18,0.01,5,Snow,82
2013-12-9,28,22,15,26,20,7,97,85,64,30.07,29.93,29.82,10,4,0,25,11,37,0.01,8,Snow,250
2013-12-10,20,14,8,18,10,-1,90,80,53,30.14,30.01,29.87,10,6,0,22,11,30,0.00,7,Snow,246
2013-12-11,19,12,3,16,8,-1,91,77,57,30.41,30.27,30.14,10,7,1,18,9,23,0.00,6,Snow,278
2013-12-12,20,10,1,18,9,-1,91,86,79,30.40,30.25,30.12,10,5,1,21,8,29,0.00,8,Snow,230
2013-12-13,25,22,19,21,18,14,88,80,71,30.24,30.16,30.09,10,10,7,16,7,21,0.00,8,,54
2013-12-14,19,16,14,17,15,11,93,88,81,30.23,30.04,29.84,10,5,0,20,13,26,0.00,8,Snow,51
2013-12-15,22,18,12,19,14,5,93,83,68,30.00,29.86,29.78,10,6,1,23,9,29,0.00,8,Snow,281
2013-12-16,16,6,-3,11,4,-8,91,80,61,30.14,30.05,29.98,10,9,2,13,6,,0.00,2,Snow,151
2013-12-17,29,21,13,26,21,11,97,90,80,29.98,29.89,29.80,10,6,1,22,9,28,0.00,8,Snow,240
2013-12-18,28,25,22,25,19,11,98,75,55,30.09,29.96,29.80,10,9,4,17,9,22,0.00,5,Snow,234
2013-12-19,36,30,24,32,27,16,99,85,66,29.95,29.88,29.77,10,8,2,14,8,17,0.00,5,Snow,176
2013-12-20,32,30,28,32,31,28,100,99,97,29.87,29.78,29.73,10,6,2,15,9,17,0.11,8,Snow,59
2013-12-21,32,30,28,32,30,28,100,99,93,29.85,29.79,29.67,10,4,0,20,7,28,0.03,8,Fog-Snow,53
2013-12-22,32,28,25,31,29,25,100,98,93,29.97,29.73,29.56,10,6,1,23,13,34,0.03,8,Snow,39
2013-12-23,25,21,17,25,21,15,100,92,79,30.27,30.17,29.98,10,8,1,16,5,22,0.00,8,Snow,263
2013-12-24,18,14,10,14,12,9,93,88,79,30.47,30.39,30.27,10,8,1,14,7,,0.00,8,Snow,215
2013-12-25,23,20,16,23,18,12,95,88,83,30.28,30.15,30.02,10,6,1,17,13,23,0.00,8,Snow,193
2013-12-26,26,24,21,25,20,15,100,87,75,30.21,30.12,29.98,10,7,2,22,10,28,0.00,8,Snow,244
2013-12-27,36,30,25,32,28,24,100,91,77,30.26,30.16,29.99,10,7,1,18,6,25,0.01,6,Snow,220
2013-12-28,42,35,28,32,31,28,97,78,67,30.05,29.96,29.82,10,9,5,23,13,29,0.00,0,,228
2013-12-29,37,27,17,32,24,8,96,77,66,30.03,29.81,29.71,10,9,2,16,9,23,0.00,5,,281
2013-12-30,18,16,13,12,7,2,86,68,55,30.24,30.14,30.04,10,10,2,10,7,,0.00,8,Snow,280
2013-12-31,17,14,11,14,10,5,88,81,69,30.30,30.15,30.04,10,5,2,16,9,22,0.00,8,Snow,276